createdAt,value
2022-10-31T00:00:07.020Z,2.53
2022-10-31T00:05:09.386Z,1.70
2022-10-31T00:10:11.200Z,1.85
2022-10-31T00:15:13.013Z,1.45
2022-10-31T00:20:15.004Z,1.83
2022-10-31T00:25:16.818Z,2.15
2022-10-31T00:30:18.576Z,1.65
2022-10-31T00:35:20.383Z,1.77
2022-10-31T00:40:22.376Z,2.22
2022-10-31T00:45:24.112Z,1.58
2022-10-31T00:50:25.995Z,2.20
2022-10-31T00:55:27.848Z,1.98
2022-10-31T01:00:29.610Z,1.38
2022-10-31T01:05:31.612Z,2.72
2022-10-31T01:10:33.511Z,2.17
2022-10-31T01:15:35.275Z,1.70
2022-10-31T01:20:37.089Z,1.67
2022-10-31T01:25:39.134Z,1.45
2022-10-31T01:30:41.034Z,1.45
2022-10-31T01:35:42.992Z,1.55
2022-10-31T01:40:45.204Z,1.70
2022-10-31T01:45:55.557Z,1.83
2022-10-31T01:50:57.486Z,2.35
2022-10-31T01:56:01.342Z,1.90
2022-10-31T02:01:07.642Z,1.63
2022-10-31T02:06:23.219Z,1.98
2022-10-31T02:11:25.350Z,1.90
2022-10-31T02:16:27.370Z,1.95
2022-10-31T02:21:49.565Z,1.77
2022-10-31T02:26:54.313Z,1.67
2022-10-31T02:32:16.125Z,1.85
2022-10-31T02:37:23.992Z,1.88
2022-10-31T02:42:54.144Z,1.95
2022-10-31T02:48:01.426Z,1.48
2022-10-31T02:53:04.059Z,1.75
2022-10-31T03:03:37.996Z,2.22
2022-10-31T03:09:32.414Z,1.52
2022-10-31T03:14:39.938Z,2.13
2022-10-31T03:19:46.919Z,1.75
2022-10-31T03:24:52.283Z,1.48
2022-10-31T03:29:57.356Z,1.88
2022-10-31T03:35:02.257Z,1.45
2022-10-31T03:40:07.310Z,1.98
2022-10-31T03:45:16.101Z,1.52
2022-10-31T03:50:18.558Z,1.70
2022-10-31T03:55:25.499Z,1.73
2022-10-31T04:00:27.652Z,2.38
2022-10-31T04:05:30.775Z,1.85
2022-10-31T04:10:34.176Z,1.67
2022-10-31T04:15:38.280Z,1.88
2022-10-31T04:20:42.382Z,1.92
2022-10-31T04:25:44.107Z,1.98
2022-10-31T04:30:46.033Z,1.48
2022-10-31T04:35:49.119Z,1.50
2022-10-31T04:40:51.091Z,1.40
2022-10-31T04:45:53.200Z,1.90
2022-10-31T04:51:03.174Z,1.10
2022-10-31T04:56:05.408Z,1.88
2022-10-31T05:01:07.207Z,1.60
2022-10-31T05:06:09.403Z,1.40
2022-10-31T05:11:11.186Z,1.80
2022-10-31T05:16:13.122Z,1.20
2022-10-31T05:21:15.012Z,1.58
2022-10-31T05:26:16.791Z,1.30
2022-10-31T05:31:18.701Z,1.25
2022-10-31T05:36:24.732Z,1.40
2022-10-31T05:41:26.609Z,1.90
2022-10-31T05:46:28.822Z,1.77
2022-10-31T05:51:30.636Z,1.50
2022-10-31T05:56:32.491Z,1.40
2022-10-31T06:01:34.474Z,1.40
2022-10-31T06:06:36.507Z,1.58
2022-10-31T06:11:38.580Z,1.75
2022-10-31T06:16:40.348Z,1.23
2022-10-31T06:21:42.222Z,1.45
2022-10-31T06:26:44.124Z,1.88
2022-10-31T06:31:46.022Z,1.27
2022-10-31T06:36:48.641Z,1.70
2022-10-31T06:41:50.367Z,1.75
2022-10-31T06:46:52.640Z,1.52
2022-10-31T06:51:54.467Z,1.67
2022-10-31T06:56:56.330Z,1.35
2022-10-31T07:01:59.890Z,1.42
2022-10-31T07:07:01.851Z,2.67
2022-10-31T07:12:03.727Z,1.38
2022-10-31T07:17:05.595Z,1.92
2022-10-31T07:22:07.450Z,1.75
2022-10-31T07:27:09.266Z,1.83
2022-10-31T07:32:11.194Z,1.50
2022-10-31T07:37:13.135Z,1.83
2022-10-31T07:42:15.242Z,1.70
2022-10-31T07:47:17.214Z,1.55
2022-10-31T07:52:18.935Z,1.17
2022-10-31T07:57:24.141Z,1.67
2022-10-31T08:02:26.962Z,4.15
2022-10-31T08:07:29.903Z,5.07
2022-10-31T08:12:31.806Z,5.05
2022-10-31T08:17:37.015Z,5.45
2022-10-31T08:22:42.845Z,5.93
2022-10-31T08:27:50.477Z,5.15
2022-10-31T08:33:15.487Z,6.13
2022-10-31T08:38:17.469Z,5.82
2022-10-31T08:43:20.066Z,8.32
2022-10-31T08:48:22.744Z,7.75
2022-10-31T08:53:24.786Z,8.18
2022-10-31T08:58:27.038Z,8.57
2022-10-31T09:03:33.126Z,9.50
2022-10-31T09:08:34.949Z,9.48
2022-10-31T09:13:41.187Z,8.35
2022-10-31T09:18:43.479Z,8.38
2022-10-31T09:23:45.418Z,8.05
2022-10-31T09:28:47.511Z,7.55
2022-10-31T09:33:49.403Z,7.43
2022-10-31T09:38:52.944Z,6.55
2022-10-31T09:44:23.925Z,6.45
2022-10-31T09:49:32.764Z,8.38
2022-10-31T09:54:47.348Z,6.88
2022-10-31T09:59:50.653Z,6.10
2022-10-31T10:04:59.651Z,6.93
2022-10-31T10:10:03.618Z,7.43
2022-10-31T10:15:29.830Z,6.68
2022-10-31T10:20:42.604Z,6.60
2022-10-31T10:25:49.425Z,7.38
2022-10-31T10:31:16.655Z,7.22
2022-10-31T10:36:26.930Z,6.40
2022-10-31T10:41:34.523Z,5.80
2022-10-31T10:47:22.255Z,5.40
2022-10-31T10:52:42.089Z,4.75
2022-10-31T10:58:03.788Z,4.30
2022-10-31T11:03:06.637Z,4.65
2022-10-31T11:08:09.187Z,4.15
2022-10-31T11:13:14.115Z,4.10
2022-10-31T11:23:45.542Z,4.13
2022-10-31T11:29:00.781Z,3.28
2022-10-31T11:34:06.071Z,3.53
2022-10-31T11:39:18.271Z,3.42
2022-10-31T11:44:29.477Z,3.67
2022-10-31T11:49:41.166Z,3.08
2022-10-31T11:54:49.359Z,3.40
2022-10-31T11:59:59.596Z,2.92
2022-10-31T12:05:30.434Z,3.60
2022-10-31T12:10:53.290Z,3.30
2022-10-31T12:16:21.543Z,2.53
2022-10-31T12:21:47.885Z,2.40
2022-10-31T12:27:07.674Z,2.97
2022-10-31T12:32:30.308Z,2.60
2022-10-31T12:38:00.189Z,3.67
2022-10-31T12:43:17.155Z,3.20
2022-10-31T12:48:46.753Z,3.03
2022-10-31T12:54:13.385Z,3.10
2022-10-31T12:59:37.300Z,2.95
2022-10-31T13:04:55.772Z,3.25
2022-10-31T13:10:20.753Z,2.88
2022-10-31T13:15:26.364Z,2.75
2022-10-31T13:20:42.611Z,2.78
2022-10-31T13:25:51.057Z,2.92
2022-10-31T13:30:54.022Z,2.22
2022-10-31T13:36:07.824Z,2.22
2022-10-31T13:41:36.519Z,2.60
2022-10-31T13:46:41.083Z,3.08
2022-10-31T13:51:43.207Z,3.22
2022-10-31T13:56:50.958Z,2.78
2022-10-31T14:01:57.536Z,2.30
2022-10-31T14:07:10.684Z,2.35
2022-10-31T14:12:23.707Z,2.05
2022-10-31T14:17:28.299Z,3.15
2022-10-31T14:22:37.450Z,2.58
2022-10-31T14:27:47.252Z,2.00
2022-10-31T14:33:19.556Z,2.58
2022-10-31T14:38:35.605Z,2.25
2022-10-31T14:43:59.162Z,3.72
2022-10-31T14:49:45.764Z,2.20
2022-10-31T14:54:52.861Z,2.92
2022-10-31T15:00:02.685Z,2.28
2022-10-31T15:05:10.827Z,2.30
2022-10-31T15:10:26.505Z,2.20
2022-10-31T15:15:28.508Z,3.33
2022-10-31T15:20:35.112Z,1.92
2022-10-31T15:25:37.313Z,3.03
2022-10-31T15:30:39.175Z,2.97
2022-10-31T15:35:41.076Z,2.17
2022-10-31T15:40:54.585Z,1.95
2022-10-31T15:45:57.628Z,2.28
2022-10-31T15:51:00.157Z,2.40
2022-10-31T15:56:14.318Z,3.63
2022-10-31T16:01:30.974Z,2.72
2022-10-31T16:06:36.144Z,2.28
2022-10-31T16:11:40.243Z,2.30
2022-10-31T16:16:49.630Z,3.28
2022-10-31T16:22:12.955Z,2.80
2022-10-31T16:27:29.607Z,2.80
2022-10-31T16:32:38.096Z,2.90
2022-10-31T16:37:41.251Z,2.00
2022-10-31T16:42:44.435Z,2.03
2022-10-31T16:47:46.551Z,2.30
2022-10-31T16:58:17.255Z,2.08
2022-10-31T17:03:19.197Z,1.70
2022-10-31T17:08:20.973Z,2.58
2022-10-31T17:13:26.270Z,2.17
2022-10-31T17:18:28.383Z,1.65
2022-10-31T17:23:30.737Z,1.90
2022-10-31T17:28:32.595Z,1.55
2022-10-31T17:33:34.433Z,2.35
2022-10-31T17:38:38.258Z,2.13
2022-10-31T17:43:40.310Z,1.67
2022-10-31T17:48:42.103Z,1.75
2022-10-31T17:53:43.919Z,1.65
2022-10-31T17:58:45.854Z,2.03
2022-10-31T18:03:47.561Z,1.98
2022-10-31T18:08:49.232Z,1.83
2022-10-31T18:13:58.472Z,1.70
2022-10-31T18:19:02.147Z,1.98
2022-10-31T18:24:04.325Z,2.38
2022-10-31T18:29:06.787Z,1.70
2022-10-31T18:34:09.224Z,1.50
2022-10-31T18:39:13.978Z,1.48
2022-10-31T18:44:15.960Z,1.52
2022-10-31T18:49:22.739Z,1.50
2022-10-31T18:54:24.502Z,1.75
2022-10-31T18:59:26.273Z,1.98
2022-10-31T19:04:28.398Z,1.30
2022-10-31T19:09:31.374Z,1.50
2022-10-31T19:14:33.153Z,1.58
2022-10-31T19:19:35.191Z,1.33
2022-10-31T19:24:37.162Z,1.42
2022-10-31T19:29:40.151Z,1.73
2022-10-31T19:34:41.911Z,1.25
2022-10-31T19:39:44.448Z,1.80
2022-10-31T19:44:46.435Z,1.50
2022-10-31T19:49:48.473Z,1.35
2022-10-31T19:54:50.348Z,1.73
2022-10-31T19:59:52.065Z,1.55
2022-10-31T20:04:53.901Z,1.20
2022-10-31T20:09:56.343Z,1.17
2022-10-31T20:14:58.426Z,1.48
2022-10-31T20:20:00.518Z,1.25
2022-10-31T20:25:04.156Z,1.50
2022-10-31T20:30:06.771Z,1.02
2022-10-31T20:35:09.306Z,1.10
2022-10-31T20:40:11.406Z,1.17
2022-10-31T20:45:13.159Z,1.23
2022-10-31T20:50:15.372Z,1.23
2022-10-31T20:55:17.568Z,1.30
2022-10-31T21:00:19.467Z,1.23
2022-10-31T21:05:21.332Z,1.25
2022-10-31T21:10:23.318Z,1.00
2022-10-31T21:15:25.066Z,1.05
2022-10-31T21:20:26.864Z,1.65
2022-10-31T21:25:28.932Z,1.58
2022-10-31T21:30:30.941Z,1.00
2022-10-31T21:35:32.849Z,1.20
2022-10-31T21:40:34.810Z,1.20
2022-10-31T21:45:36.627Z,1.10
2022-10-31T21:50:38.659Z,0.98
2022-10-31T21:55:40.608Z,1.55
2022-10-31T22:00:42.533Z,1.02
2022-10-31T22:05:44.261Z,1.33
2022-10-31T22:10:45.894Z,1.08
2022-10-31T22:15:47.632Z,1.00
2022-10-31T22:20:49.349Z,1.33
2022-10-31T22:25:51.127Z,1.42
2022-10-31T22:30:52.873Z,1.10
2022-10-31T22:35:54.807Z,0.88
2022-10-31T22:40:58.868Z,1.38
2022-10-31T22:46:03.837Z,1.38
2022-10-31T22:51:14.010Z,1.23
2022-10-31T22:56:18.711Z,1.20
2022-10-31T23:01:24.226Z,1.55
2022-10-31T23:06:30.240Z,1.45
2022-10-31T23:11:35.032Z,1.48
2022-10-31T23:16:54.702Z,1.20
2022-10-31T23:22:00.958Z,1.15
2022-10-31T23:27:11.326Z,0.90
2022-10-31T23:32:30.369Z,1.40
2022-10-31T23:37:34.263Z,1.17
2022-10-31T23:42:36.408Z,0.73
2022-10-31T23:47:42.411Z,1.17
2022-10-31T23:52:45.443Z,1.33
2022-10-31T23:57:47.378Z,0.88
